map of PNA home
PNA - Airport
Location
City:  Pamplona, Navarra, Spain
ICAO:LEPP
IATA:PNA

Details
Type:Airport (Aerodrome, Airfield)
Use:Public/Civil
Latitude:4246'12"N (42.770039)
Longitude:138'47"W (-1.646330)
Datum:WGS 1984
Elevation:1504 ft (458 m)
Variation:0.12W (WMM2015 magnetic declination)
0.12 annual change
Runways:1
Longest:7241 × 148 ft (2207 × 45 m), paved

Time
Time Zone:UTC+1 (DST+2)
Local Time:

Weather
METAR:LEPP 150800Z 25001KT 9999 FEW022 SCT059 13/08 Q1008
TAF:LEPP 150200Z 1503/1603 33007KT 9999 SCT020 SCT050 TX16/1514Z TN09/1603Z PROB30
TEMPO 1503/1506 4000 -RA BR BKN014 PROB30
TEMPO 1506/1515 4000 -RA BKN010

Related Locations
Nearby:
Farthest:NZFT: 12274 mi / 19753 km
Flat Point, WGN, NZ

Find:

   beyond  
but within

Other Information
Maps:
NOTAMs:
Links:
Sources:

  
  • flag of Spain
  • flag of Navarra
  

Sectional Chart

Flight Planning
at skyvector.com

Satellite Image

Google Maps Satellite view

 

Copyright © 2004-2018 Karl L. Swartz. All rights reserved.
The Great Circle Mapper name and logo are trademarks of the Great Circle Mapper.
All other trademarks mentioned herein belong to their respective owners.
Please see credits for attibutions and further copyright information.

  Follow gcmap on Facebook Follow gcmap on Twitter Follow gcmap on Google+ GCmap on LinkedIn

hCard Microformat

Geo Microformat